sensor_id;sensor_type;location;lat;lon;timestamp;P1;durP1;ratioP1;P2;durP2;ratioP2
9334;SDS011;4706;41.844;26.082;2023-03-05T00:01:46;19.57;;;17.67;;
9334;SDS011;4706;41.844;26.082;2023-03-05T00:04:13;19.60;;;17.50;;
9334;SDS011;4706;41.844;26.082;2023-03-05T00:06:39;24.10;;;21.33;;
9334;SDS011;4706;41.844;26.082;2023-03-05T00:09:04;25.33;;;22.83;;
9334;SDS011;4706;41.844;26.082;2023-03-05T00:11:31;29.27;;;26.43;;
9334;SDS011;4706;41.844;26.082;2023-03-05T00:13:57;35.57;;;31.73;;
9334;SDS011;4706;41.844;26.082;2023-03-05T00:16:25;35.37;;;31.77;;
9334;SDS011;4706;41.844;26.082;2023-03-05T00:18:53;34.07;;;30.60;;
9334;SDS011;4706;41.844;26.082;2023-03-05T00:21:24;33.93;;;30.40;;
9334;SDS011;4706;41.844;26.082;2023-03-05T00:23:50;31.50;;;28.40;;
9334;SDS011;4706;41.844;26.082;2023-03-05T00:26:19;31.60;;;28.40;;
9334;SDS011;4706;41.844;26.082;2023-03-05T00:28:45;30.77;;;27.77;;
9334;SDS011;4706;41.844;26.082;2023-03-05T00:31:19;29.13;;;26.40;;
9334;SDS011;4706;41.844;26.082;2023-03-05T00:33:51;34.20;;;31.00;;
9334;SDS011;4706;41.844;26.082;2023-03-05T00:36:17;41.43;;;37.27;;
9334;SDS011;4706;41.844;26.082;2023-03-05T00:38:43;44.73;;;40.13;;
9334;SDS011;4706;41.844;26.082;2023-03-05T00:41:08;34.80;;;31.57;;
9334;SDS011;4706;41.844;26.082;2023-03-05T00:43:34;29.57;;;26.67;;
9334;SDS011;4706;41.844;26.082;2023-03-05T00:45:59;24.23;;;21.87;;
9334;SDS011;4706;41.844;26.082;2023-03-05T00:48:25;22.30;;;20.10;;
9334;SDS011;4706;41.844;26.082;2023-03-05T00:50:51;19.40;;;17.40;;
9334;SDS011;4706;41.844;26.082;2023-03-05T00:53:16;21.83;;;19.53;;
9334;SDS011;4706;41.844;26.082;2023-03-05T00:55:42;28.07;;;20.23;;
9334;SDS011;4706;41.844;26.082;2023-03-05T00:58:08;19.93;;;17.83;;
9334;SDS011;4706;41.844;26.082;2023-03-05T01:00:33;19.77;;;17.03;;
9334;SDS011;4706;41.844;26.082;2023-03-05T01:03:01;19.67;;;16.77;;
9334;SDS011;4706;41.844;26.082;2023-03-05T01:05:27;29.27;;;25.40;;
9334;SDS011;4706;41.844;26.082;2023-03-05T01:07:53;41.80;;;37.30;;
9334;SDS011;4706;41.844;26.082;2023-03-05T01:10:19;29.00;;;25.93;;
9334;SDS011;4706;41.844;26.082;2023-03-05T01:12:47;20.03;;;17.73;;
9334;SDS011;4706;41.844;26.082;2023-03-05T01:15:13;18.90;;;16.93;;
9334;SDS011;4706;41.844;26.082;2023-03-05T01:17:39;17.83;;;16.03;;
9334;SDS011;4706;41.844;26.082;2023-03-05T01:20:05;20.17;;;17.00;;
9334;SDS011;4706;41.844;26.082;2023-03-05T01:22:32;25.33;;;21.30;;
9334;SDS011;4706;41.844;26.082;2023-03-05T01:24:58;21.13;;;18.83;;
9334;SDS011;4706;41.844;26.082;2023-03-05T01:27:24;19.20;;;17.13;;
9334;SDS011;4706;41.844;26.082;2023-03-05T01:29:49;18.73;;;16.73;;
9334;SDS011;4706;41.844;26.082;2023-03-05T01:32:15;18.70;;;16.70;;
9334;SDS011;4706;41.844;26.082;2023-03-05T01:34:40;17.67;;;15.87;;
9334;SDS011;4706;41.844;26.082;2023-03-05T01:37:06;18.57;;;16.67;;
9334;SDS011;4706;41.844;26.082;2023-03-05T01:39:32;19.17;;;17.17;;
9334;SDS011;4706;41.844;26.082;2023-03-05T01:41:58;19.00;;;16.23;;
9334;SDS011;4706;41.844;26.082;2023-03-05T01:44:25;17.83;;;15.93;;
9334;SDS011;4706;41.844;26.082;2023-03-05T01:46:53;20.90;;;17.20;;
9334;SDS011;4706;41.844;26.082;2023-03-05T01:49:39;29.20;;;26.10;;
9334;SDS011;4706;41.844;26.082;2023-03-05T01:52:06;27.83;;;24.83;;
9334;SDS011;4706;41.844;26.082;2023-03-05T01:54:46;30.10;;;26.87;;
9334;SDS011;4706;41.844;26.082;2023-03-05T01:57:14;29.40;;;25.93;;
9334;SDS011;4706;41.844;26.082;2023-03-05T01:59:44;31.50;;;28.00;;
9334;SDS011;4706;41.844;26.082;2023-03-05T02:02:14;25.83;;;23.13;;
9334;SDS011;4706;41.844;26.082;2023-03-05T02:04:43;23.03;;;20.83;;
9334;SDS011;4706;41.844;26.082;2023-03-05T02:07:13;23.47;;;20.77;;
9334;SDS011;4706;41.844;26.082;2023-03-05T02:09:40;25.10;;;21.60;;
9334;SDS011;4706;41.844;26.082;2023-03-05T02:12:07;25.27;;;22.57;;
9334;SDS011;4706;41.844;26.082;2023-03-05T02:14:35;25.37;;;22.57;;
9334;SDS011;4706;41.844;26.082;2023-03-05T02:17:00;25.70;;;22.53;;
9334;SDS011;4706;41.844;26.082;2023-03-05T02:19:26;26.20;;;23.40;;
9334;SDS011;4706;41.844;26.082;2023-03-05T02:21:52;25.17;;;22.47;;
9334;SDS011;4706;41.844;26.082;2023-03-05T02:24:31;26.83;;;23.30;;
9334;SDS011;4706;41.844;26.082;2023-03-05T02:26:59;29.10;;;26.00;;
9334;SDS011;4706;41.844;26.082;2023-03-05T02:29:25;31.53;;;28.13;;
9334;SDS011;4706;41.844;26.082;2023-03-05T02:31:54;29.63;;;26.43;;
9334;SDS011;4706;41.844;26.082;2023-03-05T02:34:20;31.00;;;27.67;;
9334;SDS011;4706;41.844;26.082;2023-03-05T02:36:46;28.90;;;25.93;;
9334;SDS011;4706;41.844;26.082;2023-03-05T02:39:14;26.70;;;23.90;;
9334;SDS011;4706;41.844;26.082;2023-03-05T02:41:41;23.70;;;20.37;;
9334;SDS011;4706;41.844;26.082;2023-03-05T02:44:07;20.17;;;18.03;;
9334;SDS011;4706;41.844;26.082;2023-03-05T02:46:33;19.83;;;17.73;;
9334;SDS011;4706;41.844;26.082;2023-03-05T02:48:58;22.43;;;18.97;;
9334;SDS011;4706;41.844;26.082;2023-03-05T02:51:24;21.23;;;18.93;;
9334;SDS011;4706;41.844;26.082;2023-03-05T02:53:50;21.97;;;19.07;;
9334;SDS011;4706;41.844;26.082;2023-03-05T02:56:15;24.00;;;19.50;;
9334;SDS011;4706;41.844;26.082;2023-03-05T02:58:41;32.77;;;21.13;;
9334;SDS011;4706;41.844;26.082;2023-03-05T03:01:07;38.90;;;22.80;;
9334;SDS011;4706;41.844;26.082;2023-03-05T03:03:34;34.57;;;27.70;;
9334;SDS011;4706;41.844;26.082;2023-03-05T03:06:00;50.97;;;45.60;;
9334;SDS011;4706;41.844;26.082;2023-03-05T03:08:26;78.30;;;70.23;;
9334;SDS011;4706;41.844;26.082;2023-03-05T03:10:51;104.10;;;92.57;;
9334;SDS011;4706;41.844;26.082;2023-03-05T03:13:17;80.97;;;72.20;;
9334;SDS011;4706;41.844;26.082;2023-03-05T03:15:43;36.73;;;29.47;;
9334;SDS011;4706;41.844;26.082;2023-03-05T03:18:08;46.60;;;27.77;;
9334;SDS011;4706;41.844;26.082;2023-03-05T03:20:35;32.23;;;25.37;;
9334;SDS011;4706;41.844;26.082;2023-03-05T03:23:03;47.17;;;22.97;;
9334;SDS011;4706;41.844;26.082;2023-03-05T03:25:29;63.20;;;24.53;;
9334;SDS011;4706;41.844;26.082;2023-03-05T03:27:55;58.07;;;25.27;;
9334;SDS011;4706;41.844;26.082;2023-03-05T03:30:20;33.03;;;27.70;;
9334;SDS011;4706;41.844;26.082;2023-03-05T03:32:46;34.10;;;30.70;;
9334;SDS011;4706;41.844;26.082;2023-03-05T03:35:12;46.57;;;30.33;;
9334;SDS011;4706;41.844;26.082;2023-03-05T03:37:38;42.83;;;29.03;;
9334;SDS011;4706;41.844;26.082;2023-03-05T03:40:04;33.60;;;26.80;;
9334;SDS011;4706;41.844;26.082;2023-03-05T03:42:30;48.00;;;25.87;;
9334;SDS011;4706;41.844;26.082;2023-03-05T03:44:56;88.50;;;30.00;;
9334;SDS011;4706;41.844;26.082;2023-03-05T03:47:22;47.43;;;26.83;;
9334;SDS011;4706;41.844;26.082;2023-03-05T03:49:47;30.43;;;25.80;;
9334;SDS011;4706;41.844;26.082;2023-03-05T03:52:13;29.93;;;25.90;;
9334;SDS011;4706;41.844;26.082;2023-03-05T03:54:38;72.27;;;24.77;;
9334;SDS011;4706;41.844;26.082;2023-03-05T03:57:04;31.57;;;24.97;;
9334;SDS011;4706;41.844;26.082;2023-03-05T03:59:29;29.30;;;25.87;;
9334;SDS011;4706;41.844;26.082;2023-03-05T04:01:55;29.53;;;26.27;;
9334;SDS011;4706;41.844;26.082;2023-03-05T04:04:21;34.53;;;24.93;;
9334;SDS011;4706;41.844;26.082;2023-03-05T04:06:46;52.43;;;25.37;;
9334;SDS011;4706;41.844;26.082;2023-03-05T04:09:12;27.37;;;23.40;;
9334;SDS011;4706;41.844;26.082;2023-03-05T04:11:37;32.40;;;24.60;;
9334;SDS011;4706;41.844;26.082;2023-03-05T04:14:03;30.20;;;23.43;;
9334;SDS011;4706;41.844;26.082;2023-03-05T04:16:29;28.57;;;23.53;;
9334;SDS011;4706;41.844;26.082;2023-03-05T04:18:55;29.73;;;23.37;;
9334;SDS011;4706;41.844;26.082;2023-03-05T04:21:21;26.73;;;23.20;;
9334;SDS011;4706;41.844;26.082;2023-03-05T04:23:46;26.47;;;22.33;;
9334;SDS011;4706;41.844;26.082;2023-03-05T04:26:12;33.43;;;25.80;;
9334;SDS011;4706;41.844;26.082;2023-03-05T04:28:37;30.30;;;24.03;;
9334;SDS011;4706;41.844;26.082;2023-03-05T04:31:03;29.00;;;22.17;;
9334;SDS011;4706;41.844;26.082;2023-03-05T04:33:28;26.30;;;23.00;;
9334;SDS011;4706;41.844;26.082;2023-03-05T04:35:54;27.00;;;21.80;;
9334;SDS011;4706;41.844;26.082;2023-03-05T04:38:20;32.67;;;24.43;;
9334;SDS011;4706;41.844;26.082;2023-03-05T04:40:46;31.37;;;24.87;;
9334;SDS011;4706;41.844;26.082;2023-03-05T04:43:11;27.23;;;22.63;;
9334;SDS011;4706;41.844;26.082;2023-03-05T04:45:38;26.60;;;23.70;;
9334;SDS011;4706;41.844;26.082;2023-03-05T04:48:04;27.20;;;23.47;;
9334;SDS011;4706;41.844;26.082;2023-03-05T04:50:30;26.80;;;22.00;;
9334;SDS011;4706;41.844;26.082;2023-03-05T04:52:56;23.93;;;20.30;;
9334;SDS011;4706;41.844;26.082;2023-03-05T04:55:21;36.03;;;20.43;;
9334;SDS011;4706;41.844;26.082;2023-03-05T04:57:47;44.83;;;22.40;;
9334;SDS011;4706;41.844;26.082;2023-03-05T05:00:13;36.87;;;23.27;;
9334;SDS011;4706;41.844;26.082;2023-03-05T05:02:41;26.07;;;21.93;;
9334;SDS011;4706;41.844;26.082;2023-03-05T05:05:11;32.10;;;23.63;;
9334;SDS011;4706;41.844;26.082;2023-03-05T05:07:39;35.83;;;25.17;;
9334;SDS011;4706;41.844;26.082;2023-03-05T05:10:04;34.77;;;25.20;;
9334;SDS011;4706;41.844;26.082;2023-03-05T05:12:31;33.70;;;26.03;;
9334;SDS011;4706;41.844;26.082;2023-03-05T05:14:57;29.87;;;25.73;;
9334;SDS011;4706;41.844;26.082;2023-03-05T05:17:23;27.57;;;24.17;;
9334;SDS011;4706;41.844;26.082;2023-03-05T05:19:49;28.27;;;23.00;;
9334;SDS011;4706;41.844;26.082;2023-03-05T05:22:14;28.73;;;24.60;;
9334;SDS011;4706;41.844;26.082;2023-03-05T05:24:40;26.53;;;23.27;;
9334;SDS011;4706;41.844;26.082;2023-03-05T05:27:05;24.80;;;22.27;;
9334;SDS011;4706;41.844;26.082;2023-03-05T05:29:31;26.70;;;23.77;;
9334;SDS011;4706;41.844;26.082;2023-03-05T05:31:57;28.17;;;23.77;;
9334;SDS011;4706;41.844;26.082;2023-03-05T05:34:22;33.13;;;26.17;;
9334;SDS011;4706;41.844;26.082;2023-03-05T05:36:50;29.70;;;24.83;;
9334;SDS011;4706;41.844;26.082;2023-03-05T05:39:16;26.60;;;22.03;;
9334;SDS011;4706;41.844;26.082;2023-03-05T05:41:42;25.60;;;22.90;;
9334;SDS011;4706;41.844;26.082;2023-03-05T05:44:07;24.83;;;22.17;;
9334;SDS011;4706;41.844;26.082;2023-03-05T05:46:33;24.30;;;21.70;;
9334;SDS011;4706;41.844;26.082;2023-03-05T05:48:58;25.30;;;22.67;;
9334;SDS011;4706;41.844;26.082;2023-03-05T05:51:24;25.73;;;23.03;;
9334;SDS011;4706;41.844;26.082;2023-03-05T05:53:49;29.53;;;23.23;;
9334;SDS011;4706;41.844;26.082;2023-03-05T05:56:15;27.00;;;24.20;;
9334;SDS011;4706;41.844;26.082;2023-03-05T05:58:42;28.00;;;25.23;;
9334;SDS011;4706;41.844;26.082;2023-03-05T06:01:27;31.73;;;28.53;;
9334;SDS011;4706;41.844;26.082;2023-03-05T06:03:55;32.57;;;28.83;;
9334;SDS011;4706;41.844;26.082;2023-03-05T06:06:22;30.60;;;27.10;;
9334;SDS011;4706;41.844;26.082;2023-03-05T06:08:48;30.63;;;27.53;;
9334;SDS011;4706;41.844;26.082;2023-03-05T06:11:14;33.20;;;28.70;;
9334;SDS011;4706;41.844;26.082;2023-03-05T06:13:40;33.53;;;29.87;;
9334;SDS011;4706;41.844;26.082;2023-03-05T06:16:07;28.67;;;25.30;;
9334;SDS011;4706;41.844;26.082;2023-03-05T06:18:35;28.37;;;25.37;;
9334;SDS011;4706;41.844;26.082;2023-03-05T06:21:02;27.57;;;24.73;;
9334;SDS011;4706;41.844;26.082;2023-03-05T06:23:29;75.37;;;60.83;;
9334;SDS011;4706;41.844;26.082;2023-03-05T06:25:59;76.93;;;59.83;;
9334;SDS011;4706;41.844;26.082;2023-03-05T06:28:26;46.03;;;40.83;;
9334;SDS011;4706;41.844;26.082;2023-03-05T06:33:32;41.17;;;36.67;;
9334;SDS011;4706;41.844;26.082;2023-03-05T06:35:58;31.10;;;26.63;;
9334;SDS011;4706;41.844;26.082;2023-03-05T06:38:23;31.63;;;28.33;;
9334;SDS011;4706;41.844;26.082;2023-03-05T06:40:50;68.90;;;58.47;;
9334;SDS011;4706;41.844;26.082;2023-03-05T06:43:16;32.27;;;28.87;;
9334;SDS011;4706;41.844;26.082;2023-03-05T06:45:41;39.33;;;34.20;;
9334;SDS011;4706;41.844;26.082;2023-03-05T06:48:07;30.43;;;27.33;;
9334;SDS011;4706;41.844;26.082;2023-03-05T06:50:33;27.73;;;23.57;;
9334;SDS011;4706;41.844;26.082;2023-03-05T06:53:00;24.27;;;21.97;;
9334;SDS011;4706;41.844;26.082;2023-03-05T06:55:25;28.57;;;25.57;;
9334;SDS011;4706;41.844;26.082;2023-03-05T06:57:51;27.20;;;24.57;;
9334;SDS011;4706;41.844;26.082;2023-03-05T07:00:16;28.13;;;25.43;;
9334;SDS011;4706;41.844;26.082;2023-03-05T07:02:42;29.33;;;26.33;;
9334;SDS011;4706;41.844;26.082;2023-03-05T07:05:08;28.83;;;25.93;;
9334;SDS011;4706;41.844;26.082;2023-03-05T07:07:34;28.80;;;25.80;;
9334;SDS011;4706;41.844;26.082;2023-03-05T07:09:59;25.07;;;22.47;;
9334;SDS011;4706;41.844;26.082;2023-03-05T07:12:25;26.00;;;23.40;;
9334;SDS011;4706;41.844;26.082;2023-03-05T07:14:51;26.60;;;24.00;;
9334;SDS011;4706;41.844;26.082;2023-03-05T07:17:16;24.90;;;22.40;;
9334;SDS011;4706;41.844;26.082;2023-03-05T07:19:42;27.97;;;25.07;;
9334;SDS011;4706;41.844;26.082;2023-03-05T07:22:08;30.60;;;26.70;;
9334;SDS011;4706;41.844;26.082;2023-03-05T07:24:34;30.20;;;26.40;;
9334;SDS011;4706;41.844;26.082;2023-03-05T07:27:00;30.80;;;27.47;;
9334;SDS011;4706;41.844;26.082;2023-03-05T07:29:26;28.60;;;24.77;;
9334;SDS011;4706;41.844;26.082;2023-03-05T07:31:52;29.83;;;24.63;;
9334;SDS011;4706;41.844;26.082;2023-03-05T07:34:19;26.43;;;23.30;;
9334;SDS011;4706;41.844;26.082;2023-03-05T07:36:45;24.93;;;22.53;;
9334;SDS011;4706;41.844;26.082;2023-03-05T07:39:13;27.20;;;24.40;;
9334;SDS011;4706;41.844;26.082;2023-03-05T07:41:39;31.23;;;25.70;;
9334;SDS011;4706;41.844;26.082;2023-03-05T07:44:05;27.23;;;24.43;;
9334;SDS011;4706;41.844;26.082;2023-03-05T07:46:32;24.63;;;22.02;;
9334;SDS011;4706;41.844;26.082;2023-03-05T07:48:58;24.57;;;22.07;;
9334;SDS011;4706;41.844;26.082;2023-03-05T07:51:24;26.60;;;23.80;;
9334;SDS011;4706;41.844;26.082;2023-03-05T07:53:51;43.97;;;38.85;;
9334;SDS011;4706;41.844;26.082;2023-03-05T07:56:21;32.23;;;28.87;;
9334;SDS011;4706;41.844;26.082;2023-03-05T07:58:48;32.97;;;29.42;;
9334;SDS011;4706;41.844;26.082;2023-03-05T08:01:13;27.70;;;24.80;;
9334;SDS011;4706;41.844;26.082;2023-03-05T08:03:40;26.63;;;23.93;;
9334;SDS011;4706;41.844;26.082;2023-03-05T08:06:06;25.77;;;23.17;;
9334;SDS011;4706;41.844;26.082;2023-03-05T08:08:33;27.63;;;24.73;;
9334;SDS011;4706;41.844;26.082;2023-03-05T08:11:04;29.13;;;26.13;;
9334;SDS011;4706;41.844;26.082;2023-03-05T08:13:30;31.25;;;27.77;;
9334;SDS011;4706;41.844;26.082;2023-03-05T08:15:56;31.75;;;28.40;;
9334;SDS011;4706;41.844;26.082;2023-03-05T08:18:22;34.38;;;29.73;;
9334;SDS011;4706;41.844;26.082;2023-03-05T08:20:47;32.58;;;29.13;;
9334;SDS011;4706;41.844;26.082;2023-03-05T08:23:13;38.45;;;34.35;;
9334;SDS011;4706;41.844;26.082;2023-03-05T08:25:38;35.92;;;32.10;;
9334;SDS011;4706;41.844;26.082;2023-03-05T08:28:04;35.42;;;31.70;;
9334;SDS011;4706;41.844;26.082;2023-03-05T08:30:29;34.25;;;30.67;;
9334;SDS011;4706;41.844;26.082;2023-03-05T09:20:33;29.48;;;26.50;;
9334;SDS011;4706;41.844;26.082;2023-03-05T09:22:59;31.08;;;26.98;;
9334;SDS011;4706;41.844;26.082;2023-03-05T09:25:25;27.15;;;24.27;;
9334;SDS011;4706;41.844;26.082;2023-03-05T09:27:51;27.73;;;24.75;;
9334;SDS011;4706;41.844;26.082;2023-03-05T09:30:16;27.88;;;25.10;;
9334;SDS011;4706;41.844;26.082;2023-03-05T09:32:42;26.73;;;23.88;;
9334;SDS011;4706;41.844;26.082;2023-03-05T09:35:08;24.50;;;22.05;;
9334;SDS011;4706;41.844;26.082;2023-03-05T09:37:34;26.48;;;23.63;;
9334;SDS011;4706;41.844;26.082;2023-03-05T09:39:59;23.77;;;21.38;;
9334;SDS011;4706;41.844;26.082;2023-03-05T09:47:43;23.17;;;20.67;;
9334;SDS011;4706;41.844;26.082;2023-03-05T09:50:32;25.05;;;22.45;;
9334;SDS011;4706;41.844;26.082;2023-03-05T09:53:45;24.27;;;21.77;;
9334;SDS011;4706;41.844;26.082;2023-03-05T09:56:00;22.60;;;20.25;;
9334;SDS011;4706;41.844;26.082;2023-03-05T10:01:12;22.45;;;20.10;;
9334;SDS011;4706;41.844;26.082;2023-03-05T10:06:26;21.85;;;19.75;;
9334;SDS011;4706;41.844;26.082;2023-03-05T10:09:45;50.05;;;41.15;;
9334;SDS011;4706;41.844;26.082;2023-03-05T10:14:56;49.83;;;40.50;;
9334;SDS011;4706;41.844;26.082;2023-03-05T10:23:15;26.73;;;23.98;;
9334;SDS011;4706;41.844;26.082;2023-03-05T10:25:53;29.92;;;25.17;;
9334;SDS011;4706;41.844;26.082;2023-03-05T10:28:28;30.27;;;27.00;;
9334;SDS011;4706;41.844;26.082;2023-03-05T10:44:59;46.65;;;39.20;;
9334;SDS011;4706;41.844;26.082;2023-03-05T10:47:31;27.83;;;22.50;;
9334;SDS011;4706;41.844;26.082;2023-03-05T10:50:17;19.92;;;17.65;;
9334;SDS011;4706;41.844;26.082;2023-03-05T10:52:46;24.23;;;21.63;;
9334;SDS011;4706;41.844;26.082;2023-03-05T10:55:21;20.73;;;17.88;;
9334;SDS011;4706;41.844;26.082;2023-03-05T10:57:47;18.30;;;16.05;;
9334;SDS011;4706;41.844;26.082;2023-03-05T11:02:56;18.77;;;16.90;;
9334;SDS011;4706;41.844;26.082;2023-03-05T11:13:29;33.25;;;28.92;;
9334;SDS011;4706;41.844;26.082;2023-03-05T11:16:02;18.95;;;16.90;;
9334;SDS011;4706;41.844;26.082;2023-03-05T11:18:30;21.50;;;16.80;;
9334;SDS011;4706;41.844;26.082;2023-03-05T11:21:08;24.20;;;21.60;;
9334;SDS011;4706;41.844;26.082;2023-03-05T11:23:49;69.38;;;57.45;;
9334;SDS011;4706;41.844;26.082;2023-03-05T11:26:29;22.35;;;19.55;;
9334;SDS011;4706;41.844;26.082;2023-03-05T11:28:57;21.13;;;18.75;;
9334;SDS011;4706;41.844;26.082;2023-03-05T11:31:25;19.63;;;17.65;;
9334;SDS011;4706;41.844;26.082;2023-03-05T11:34:10;19.42;;;17.42;;
9334;SDS011;4706;41.844;26.082;2023-03-05T11:39:18;22.92;;;20.58;;
9334;SDS011;4706;41.844;26.082;2023-03-05T11:41:47;21.67;;;18.60;;
9334;SDS011;4706;41.844;26.082;2023-03-05T11:44:19;21.58;;;19.27;;
9334;SDS011;4706;41.844;26.082;2023-03-05T11:49:43;22.25;;;18.13;;
9334;SDS011;4706;41.844;26.082;2023-03-05T11:52:13;18.88;;;16.45;;
9334;SDS011;4706;41.844;26.082;2023-03-05T11:54:58;27.65;;;19.05;;
9334;SDS011;4706;41.844;26.082;2023-03-05T11:57:25;20.35;;;18.05;;
9334;SDS011;4706;41.844;26.082;2023-03-05T11:59:54;19.77;;;17.77;;
9334;SDS011;4706;41.844;26.082;2023-03-05T12:02:23;21.35;;;19.05;;
9334;SDS011;4706;41.844;26.082;2023-03-05T12:04:51;20.92;;;17.75;;
9334;SDS011;4706;41.844;26.082;2023-03-05T12:07:18;19.85;;;17.67;;
9334;SDS011;4706;41.844;26.082;2023-03-05T12:10:06;22.17;;;18.55;;
9334;SDS011;4706;41.844;26.082;2023-03-05T12:13:00;20.55;;;18.13;;
9334;SDS011;4706;41.844;26.082;2023-03-05T12:15:49;20.33;;;17.35;;
9334;SDS011;4706;41.844;26.082;2023-03-05T12:21:22;19.80;;;17.45;;
9334;SDS011;4706;41.844;26.082;2023-03-05T12:24:02;32.13;;;27.35;;
9334;SDS011;4706;41.844;26.082;2023-03-05T12:29:25;27.73;;;19.83;;
9334;SDS011;4706;41.844;26.082;2023-03-05T12:31:52;18.75;;;16.95;;
9334;SDS011;4706;41.844;26.082;2023-03-05T12:34:34;19.33;;;17.25;;
9334;SDS011;4706;41.844;26.082;2023-03-05T12:37:03;22.02;;;17.63;;
9334;SDS011;4706;41.844;26.082;2023-03-05T12:40:32;17.35;;;15.70;;
9334;SDS011;4706;41.844;26.082;2023-03-05T12:47:44;19.15;;;17.23;;
9334;SDS011;4706;41.844;26.082;2023-03-05T13:01:03;19.73;;;17.67;;
9334;SDS011;4706;41.844;26.082;2023-03-05T13:03:32;18.58;;;16.75;;
9334;SDS011;4706;41.844;26.082;2023-03-05T13:06:01;17.70;;;15.80;;
9334;SDS011;4706;41.844;26.082;2023-03-05T13:08:30;18.40;;;16.70;;
9334;SDS011;4706;41.844;26.082;2023-03-05T13:13:22;17.80;;;16.13;;
9334;SDS011;4706;41.844;26.082;2023-03-05T13:15:50;17.55;;;15.85;;
9334;SDS011;4706;41.844;26.082;2023-03-05T13:18:27;18.40;;;16.40;;
9334;SDS011;4706;41.844;26.082;2023-03-05T13:21:00;16.48;;;14.75;;
9334;SDS011;4706;41.844;26.082;2023-03-05T13:23:27;16.42;;;14.75;;
9334;SDS011;4706;41.844;26.082;2023-03-05T13:26:12;16.95;;;14.93;;
9334;SDS011;4706;41.844;26.082;2023-03-05T13:28:39;15.60;;;14.15;;
9334;SDS011;4706;41.844;26.082;2023-03-05T13:31:16;20.27;;;18.38;;
9334;SDS011;4706;41.844;26.082;2023-03-05T13:33:49;19.65;;;17.75;;
9334;SDS011;4706;41.844;26.082;2023-03-05T13:36:20;18.35;;;16.42;;
9334;SDS011;4706;41.844;26.082;2023-03-05T13:38:48;14.88;;;13.27;;
9334;SDS011;4706;41.844;26.082;2023-03-05T13:43:47;20.85;;;18.75;;
9334;SDS011;4706;41.844;26.082;2023-03-05T13:51:49;16.73;;;15.20;;
9334;SDS011;4706;41.844;26.082;2023-03-05T13:54:17;17.25;;;15.55;;
9334;SDS011;4706;41.844;26.082;2023-03-05T13:56:50;18.70;;;16.77;;
9334;SDS011;4706;41.844;26.082;2023-03-05T13:59:21;16.63;;;15.05;;
9334;SDS011;4706;41.844;26.082;2023-03-05T14:01:49;16.13;;;14.63;;
9334;SDS011;4706;41.844;26.082;2023-03-05T14:04:17;18.08;;;16.17;;
9334;SDS011;4706;41.844;26.082;2023-03-05T14:09:19;15.98;;;14.48;;
9334;SDS011;4706;41.844;26.082;2023-03-05T14:14:23;15.50;;;14.07;;
9334;SDS011;4706;41.844;26.082;2023-03-05T14:16:50;17.48;;;15.77;;
9334;SDS011;4706;41.844;26.082;2023-03-05T14:22:02;18.55;;;15.90;;
9334;SDS011;4706;41.844;26.082;2023-03-05T14:24:29;23.13;;;17.50;;
9334;SDS011;4706;41.844;26.082;2023-03-05T14:26:59;21.48;;;16.48;;
9334;SDS011;4706;41.844;26.082;2023-03-05T14:29:30;18.27;;;15.10;;
9334;SDS011;4706;41.844;26.082;2023-03-05T14:32:04;17.25;;;14.25;;
9334;SDS011;4706;41.844;26.082;2023-03-05T14:34:32;14.40;;;12.80;;
9334;SDS011;4706;41.844;26.082;2023-03-05T14:37:15;15.20;;;13.70;;
9334;SDS011;4706;41.844;26.082;2023-03-05T14:39:48;14.50;;;12.65;;
9334;SDS011;4706;41.844;26.082;2023-03-05T14:42:29;15.68;;;14.25;;
9334;SDS011;4706;41.844;26.082;2023-03-05T14:45:15;16.10;;;14.50;;
9334;SDS011;4706;41.844;26.082;2023-03-05T14:47:41;15.90;;;13.00;;
9334;SDS011;4706;41.844;26.082;2023-03-05T14:50:07;14.52;;;13.13;;
9334;SDS011;4706;41.844;26.082;2023-03-05T14:53:00;16.40;;;13.65;;
9334;SDS011;4706;41.844;26.082;2023-03-05T14:55:29;18.50;;;15.63;;
9334;SDS011;4706;41.844;26.082;2023-03-05T14:58:18;16.45;;;14.60;;
9334;SDS011;4706;41.844;26.082;2023-03-05T15:00:46;13.60;;;12.20;;
9334;SDS011;4706;41.844;26.082;2023-03-05T15:03:13;13.82;;;12.48;;
9334;SDS011;4706;41.844;26.082;2023-03-05T15:05:41;14.95;;;13.43;;
9334;SDS011;4706;41.844;26.082;2023-03-05T15:08:14;14.70;;;13.10;;
9334;SDS011;4706;41.844;26.082;2023-03-05T15:10:42;38.85;;;16.63;;
9334;SDS011;4706;41.844;26.082;2023-03-05T15:13:08;16.90;;;13.55;;
9334;SDS011;4706;41.844;26.082;2023-03-05T15:15:33;15.18;;;13.07;;
9334;SDS011;4706;41.844;26.082;2023-03-05T15:17:59;15.50;;;13.88;;
9334;SDS011;4706;41.844;26.082;2023-03-05T15:20:27;14.70;;;13.23;;
9334;SDS011;4706;41.844;26.082;2023-03-05T15:22:54;16.65;;;14.30;;
9334;SDS011;4706;41.844;26.082;2023-03-05T15:25:20;16.80;;;13.48;;
9334;SDS011;4706;41.844;26.082;2023-03-05T15:27:49;15.65;;;14.05;;
9334;SDS011;4706;41.844;26.082;2023-03-05T15:30:20;17.60;;;14.02;;
9334;SDS011;4706;41.844;26.082;2023-03-05T15:32:49;18.52;;;14.77;;
9334;SDS011;4706;41.844;26.082;2023-03-05T15:35:17;21.65;;;15.68;;
9334;SDS011;4706;41.844;26.082;2023-03-05T15:37:43;17.42;;;14.93;;
9334;SDS011;4706;41.844;26.082;2023-03-05T15:40:08;17.67;;;15.75;;
9334;SDS011;4706;41.844;26.082;2023-03-05T15:42:35;23.13;;;17.75;;
9334;SDS011;4706;41.844;26.082;2023-03-05T15:45:00;26.75;;;18.30;;
9334;SDS011;4706;41.844;26.082;2023-03-05T15:47:26;27.08;;;19.23;;
9334;SDS011;4706;41.844;26.082;2023-03-05T15:49:51;25.42;;;19.70;;
9334;SDS011;4706;41.844;26.082;2023-03-05T15:52:17;26.38;;;19.40;;
9334;SDS011;4706;41.844;26.082;2023-03-05T15:54:42;35.03;;;20.10;;
9334;SDS011;4706;41.844;26.082;2023-03-05T15:57:09;26.58;;;18.83;;
9334;SDS011;4706;41.844;26.082;2023-03-05T15:59:35;25.00;;;17.90;;
9334;SDS011;4706;41.844;26.082;2023-03-05T16:02:01;24.48;;;19.05;;
9334;SDS011;4706;41.844;26.082;2023-03-05T16:04:27;25.35;;;19.25;;
9334;SDS011;4706;41.844;26.082;2023-03-05T16:06:53;20.98;;;18.52;;
9334;SDS011;4706;41.844;26.082;2023-03-05T16:09:20;21.23;;;18.88;;
9334;SDS011;4706;41.844;26.082;2023-03-05T16:11:46;28.55;;;21.77;;
9334;SDS011;4706;41.844;26.082;2023-03-05T16:14:20;24.40;;;20.95;;
9334;SDS011;4706;41.844;26.082;2023-03-05T16:16:49;35.97;;;24.23;;
9334;SDS011;4706;41.844;26.082;2023-03-05T16:19:17;31.27;;;23.38;;
9334;SDS011;4706;41.844;26.082;2023-03-05T16:21:43;31.10;;;23.08;;
9334;SDS011;4706;41.844;26.082;2023-03-05T16:24:09;39.97;;;25.35;;
9334;SDS011;4706;41.844;26.082;2023-03-05T16:26:35;25.30;;;21.50;;
9334;SDS011;4706;41.844;26.082;2023-03-05T16:29:02;28.17;;;20.15;;
9334;SDS011;4706;41.844;26.082;2023-03-05T16:31:32;26.15;;;19.50;;
9334;SDS011;4706;41.844;26.082;2023-03-05T16:33:59;23.60;;;17.67;;
9334;SDS011;4706;41.844;26.082;2023-03-05T16:36:26;20.63;;;17.25;;
9334;SDS011;4706;41.844;26.082;2023-03-05T16:38:54;35.83;;;19.70;;
9334;SDS011;4706;41.844;26.082;2023-03-05T16:41:22;28.05;;;20.45;;
9334;SDS011;4706;41.844;26.082;2023-03-05T16:43:48;33.10;;;22.67;;
9334;SDS011;4706;41.844;26.082;2023-03-05T16:46:15;26.30;;;20.38;;
9334;SDS011;4706;41.844;26.082;2023-03-05T16:48:41;23.95;;;18.83;;
9334;SDS011;4706;41.844;26.082;2023-03-05T16:51:08;24.02;;;19.20;;
9334;SDS011;4706;41.844;26.082;2023-03-05T16:53:34;20.65;;;18.10;;
9334;SDS011;4706;41.844;26.082;2023-03-05T16:56:01;22.92;;;18.23;;
9334;SDS011;4706;41.844;26.082;2023-03-05T16:58:28;24.55;;;18.80;;
9334;SDS011;4706;41.844;26.082;2023-03-05T17:00:54;23.05;;;17.98;;